Sisseton, SD (57262)

2:23 AM CST on February 09, 2016 (GMT -0600)
W Browns Valley Twp | | Change Station
CLOSE
Current Station
Personal Weather Station
Location: Beardsley, MN
Elevation: 1089 ft
Nearby Weather Stations

Elev 1089 ft 45.56 °N, 96.74 °W | Updated 5 seconds ago

Partly Cloudy
Partly Cloudy
6.3 °F
Feels Like -5 °F
N
6.5
Wind Variable Wind from NNE
Gusts 9.8 mph

Today
High -- | Low -- °F
--% Chance of Precip.
Yesterday
High -- | Low -- °F
Precip. -- in
Pressure 30.23 in
Visibility 10.0 miles
Clouds Mostly Cloudy 1600 ft
Windchill -5 °F
Dew Point -8 °F
Humidity 51%
Rainfall 0.00 in
Snow Depth Not available.
7:39 AM 5:45 PM
New Moon, 1% visible
METAR KETH 090816Z AUTO 32016G23KT 10SM BKN016 M13/M16 A3023 RMK AO2
Pressure 30.23 in
Visibility 10.0 miles
Clouds Mostly Cloudy 1600 ft
Windchill -5 °F
Dew Point -8 °F
Humidity 51%
Rainfall 0.00 in
Snow Depth Not available.
7:39 AM 5:45 PM
New Moon, 1% visible
METAR KETH 090816Z AUTO 32016G23KT 10SM BKN016 M13/M16 A3023 RMK AO2

10-Day Weather Forecast

Almanac

Astronomy

Feb. 09, 2016 Rise Set
Actual Time
Civil Twilight
Nautical Twilight
Astronomical Twilight
Moon
Length of Visible Light
Length of Day
Tomorrow will be .
, % of the Moon is Illuminated

Today's Extremes

State Highs State Lows

Community

WunderPhotos

Upload Photos

1,891,571 photos uploaded!

WunderBlog® & News

Nearby

Air Quality

  Air Quality AQ Index Pollutant
Not available.

Snow Depth

Station Depth Elevation

Earthquake Activity

City Distance Mag. Time & Date
Minimum magnitude displayed is 2.5.

Coastal Water Temperatures

Place Temperature

Stations

Nearby Weather Stations

Station Location Temp. Windchill Dew Point Humidity Wind Precip. Elev Updated Type
                   

Watches & Warnings

There are currently no watches in effect.